Pagrindinis puslapis
METAR-TAF:

METAR-TAF

Oro uostai :

Tulča, Rumunija

platuma: 45-11N, ilguma: 028-49E, Aukštis: 4 m

Dabartinis oras

Ataskaita buvo paskelbta 28 minutes, ne 04:30 UTC
Vėjas 8 kt iš Rytų
Temperatūra 12°C
Drėgmė 94%
Slėgis 1017 hPa
Matomumas: 5000 m
rūkana

METAR: LRTC 130430Z AUTO 08008KT 5000 BR NCD 12/11 Q1017

Laikas: 06:58 (04:58 UTC)

Prognozė

Ataskaita buvo paskelbta 14 valandos ir 58 minutes, ne 14:00 UTC
Prognozė galioja nuo 12 metu 15 UTC su 12 metu 24 UTC
Vėjas 10 kt iš Rytų/Pietryčių
Matomumas 10 km arba daugiau
nėra debesų žemiau 1500 m ir nėra kamuolinių lietaus debesų
Tapsmas
nuo 12 metu 15 UTC su 12 metu 17 UTC
Matomumas: 3000 m
Su prošvaistėmis ne aukštis 1000 ft
rūkana

TAF: LRTC 121400Z 1215/1224 12010KT CAVOK BECMG 1215/1217 3000 BR BKN010

Orai ataskaitas ir orų prognozės (METAR, TAF).

turimą stotys yra geltonos ir raudonos taškus žemėlapyje.

Perkelti pele per norėdami pamatyti stoties vardą.

Tada spustelėkite, norėdami matyti oro stebėjimo ir prognozės.

Norėdami pakeisti žemėlapį: spustelėkite ant žalios mygtukų su juodo kryžiaus žemyn,; žalią mygtuką su brūkšneliu, jei norite nutolinti; arba žalių rodyklių gretimoms žemėlapius.


METAR-TAF: